createdAt,value
2022-12-26T00:00:31.697Z,100688.03
2022-12-26T00:01:35.357Z,100689.69
2022-12-26T00:02:36.882Z,100684.22
2022-12-26T00:03:38.726Z,100681.50
2022-12-26T00:04:50.269Z,100692.41
2022-12-26T00:05:53.994Z,100686.94
2022-12-26T00:06:55.440Z,100691.47
2022-12-26T00:07:56.830Z,100687.84
2022-12-26T00:08:59.195Z,100691.38
2022-12-26T00:10:00.637Z,100693.31
2022-12-26T00:11:02.062Z,100698.66
2022-12-26T00:12:03.911Z,100690.53
2022-12-26T00:13:39.581Z,100690.34
2022-12-26T00:14:26.751Z,100682.22
2022-12-26T00:15:28.272Z,100677.78
2022-12-26T00:16:29.854Z,100689.53
2022-12-26T00:17:31.369Z,100688.56
2022-12-26T00:18:32.794Z,100686.66
2022-12-26T00:19:34.230Z,100683.09
2022-12-26T00:20:35.756Z,100681.13
2022-12-26T00:21:37.718Z,100668.44
2022-12-26T00:22:39.093Z,100666.78
2022-12-26T00:23:41.385Z,100665.84
2022-12-26T00:24:42.821Z,100664.13
2022-12-26T00:25:44.265Z,100671.31
2022-12-26T00:26:45.709Z,100665.84
2022-12-26T00:27:47.099Z,100662.25
2022-12-26T00:28:48.908Z,100657.63
2022-12-26T00:29:50.418Z,100656.66
2022-12-26T00:30:51.840Z,100669.34
2022-12-26T00:31:53.478Z,100661.34
2022-12-26T00:32:55.318Z,100671.25
2022-12-26T00:33:56.770Z,100683.03
2022-12-26T00:34:58.189Z,100674.88
2022-12-26T00:36:13.961Z,100685.81
2022-12-26T00:37:15.372Z,100685.78
2022-12-26T00:38:16.776Z,100680.31
2022-12-26T00:39:18.201Z,100674.88
2022-12-26T00:40:19.610Z,100668.56
2022-12-26T00:41:22.092Z,100671.22
2022-12-26T00:42:23.752Z,100663.16
2022-12-26T00:43:25.214Z,100658.50
2022-12-26T00:44:26.681Z,100663.06
2022-12-26T00:45:28.075Z,100649.63
2022-12-26T00:46:29.680Z,100656.78
2022-12-26T00:47:31.185Z,100655.03
2022-12-26T00:48:32.921Z,100655.13
2022-12-26T00:50:12.607Z,100653.25
2022-12-26T00:50:55.999Z,100665.88
2022-12-26T00:51:57.423Z,100664.22
2022-12-26T00:52:58.900Z,100660.44
2022-12-26T00:54:00.357Z,100662.31
2022-12-26T00:55:01.832Z,100655.06
2022-12-26T00:56:03.983Z,100644.34
2022-12-26T00:57:05.425Z,100649.75
2022-12-26T00:58:06.838Z,100655.16
2022-12-26T00:59:08.285Z,100652.41
2022-12-26T01:00:10.234Z,100644.25
2022-12-26T01:01:22.350Z,100643.34
2022-12-26T01:02:39.443Z,100637.75
2022-12-26T01:03:41.473Z,100642.44
2022-12-26T01:04:42.909Z,100644.25
2022-12-26T01:05:46.949Z,100630.72
2022-12-26T01:06:48.415Z,100638.81
2022-12-26T01:08:20.057Z,100637.00
2022-12-26T01:09:13.298Z,100638.81
2022-12-26T01:10:14.807Z,100636.97
2022-12-26T01:11:37.191Z,100646.00
2022-12-26T01:12:39.318Z,100626.13
2022-12-26T01:13:42.016Z,100635.13
2022-12-26T01:14:43.466Z,100627.91
2022-12-26T01:15:52.395Z,100627.91
2022-12-26T01:16:53.913Z,100633.25
2022-12-26T01:17:55.366Z,100630.56
2022-12-26T01:18:56.811Z,100635.16
2022-12-26T01:19:58.752Z,100632.44
2022-12-26T01:21:07.357Z,100629.72
2022-12-26T01:22:08.865Z,100625.16
2022-12-26T01:23:10.397Z,100633.25
2022-12-26T01:24:12.907Z,100629.66
2022-12-26T01:25:14.339Z,100618.84
2022-12-26T01:26:20.312Z,100630.72
2022-12-26T01:27:23.576Z,100619.84
2022-12-26T01:28:25.019Z,100625.34
2022-12-26T01:29:26.422Z,100631.66
2022-12-26T01:30:27.873Z,100630.81
2022-12-26T01:31:29.399Z,100629.91
2022-12-26T01:32:30.815Z,100639.88
2022-12-26T01:33:33.053Z,100636.16
2022-12-26T01:34:34.468Z,100640.63
2022-12-26T01:35:35.942Z,100638.88
2022-12-26T01:36:37.410Z,100636.16
2022-12-26T01:37:38.907Z,100636.16
2022-12-26T01:38:40.312Z,100629.88
2022-12-26T01:39:42.715Z,100631.63
2022-12-26T01:40:44.324Z,100626.13
2022-12-26T01:41:46.043Z,100618.06
2022-12-26T01:42:47.545Z,100621.56
2022-12-26T01:43:49.010Z,100600.91
2022-12-26T01:44:59.502Z,100613.47
2022-12-26T01:46:00.965Z,100608.09
2022-12-26T01:47:02.427Z,100597.13
2022-12-26T01:48:15.609Z,100610.66
2022-12-26T01:49:32.457Z,100612.47
2022-12-26T01:50:52.205Z,100617.00
2022-12-26T01:51:59.489Z,100610.78
2022-12-26T01:53:12.530Z,100611.75
2022-12-26T01:54:40.248Z,100617.25
2022-12-26T01:55:37.360Z,100619.97
2022-12-26T01:56:41.881Z,100617.22
2022-12-26T01:57:47.455Z,100611.69
2022-12-26T01:59:03.395Z,100600.09
2022-12-26T02:00:06.481Z,100610.00
2022-12-26T02:01:09.734Z,100602.81
2022-12-26T02:02:11.685Z,100619.00
2022-12-26T02:03:32.117Z,100618.94
2022-12-26T02:04:59.200Z,100609.84
2022-12-26T02:06:01.795Z,100607.81
2022-12-26T02:07:04.976Z,100609.56
2022-12-26T02:08:11.616Z,100609.72
2022-12-26T02:09:13.348Z,100597.84
2022-12-26T02:10:21.885Z,100598.66
2022-12-26T02:11:33.159Z,100607.59
2022-12-26T02:12:38.826Z,100605.75
2022-12-26T02:13:41.821Z,100610.41
2022-12-26T02:14:43.703Z,100602.22
2022-12-26T02:15:46.093Z,100588.75
2022-12-26T02:16:47.917Z,100604.03
2022-12-26T02:17:49.552Z,100593.31
2022-12-26T02:18:50.975Z,100619.59
2022-12-26T02:20:10.053Z,100605.75
2022-12-26T02:21:19.015Z,100599.56
2022-12-26T02:22:28.535Z,100595.13
2022-12-26T02:23:54.074Z,100606.66
2022-12-26T02:25:07.657Z,100598.47
2022-12-26T02:26:27.712Z,100600.22
2022-12-26T02:27:29.031Z,100590.38
2022-12-26T02:28:57.119Z,100591.19
2022-12-26T02:30:13.652Z,100592.88
2022-12-26T02:31:24.093Z,100598.41
2022-12-26T02:32:46.439Z,100602.00
2022-12-26T02:33:50.917Z,100591.13
2022-12-26T02:34:52.302Z,100599.28
2022-12-26T02:36:20.075Z,100591.13
2022-12-26T02:37:47.717Z,100602.84
2022-12-26T02:39:42.439Z,100591.94
2022-12-26T02:40:48.241Z,100592.00
2022-12-26T02:42:20.745Z,100592.88
2022-12-26T02:43:30.159Z,100576.63
2022-12-26T02:45:07.518Z,100592.91
2022-12-26T02:46:50.982Z,100582.91
2022-12-26T02:47:57.218Z,100585.66
2022-12-26T02:49:20.796Z,100579.34
2022-12-26T02:50:52.042Z,100589.31
2022-12-26T02:52:25.780Z,100585.50
2022-12-26T02:54:10.509Z,100576.34
2022-12-26T02:55:38.314Z,100584.59
2022-12-26T02:57:05.317Z,100590.00
2022-12-26T02:58:32.151Z,100597.19
2022-12-26T03:00:11.481Z,100603.59
2022-12-26T03:01:47.245Z,100601.56
2022-12-26T03:03:29.165Z,100608.06
2022-12-26T03:04:52.745Z,100601.84
2022-12-26T03:06:27.605Z,100590.19
2022-12-26T03:07:53.366Z,100610.97
2022-12-26T03:09:24.317Z,100599.97
2022-12-26T03:10:50.309Z,100600.75
2022-12-26T03:12:13.808Z,100599.91
2022-12-26T03:13:25.667Z,100602.75
2022-12-26T03:14:41.999Z,100597.38
2022-12-26T03:16:16.354Z,100594.63
2022-12-26T03:17:35.997Z,100611.88
2022-12-26T03:18:58.151Z,100602.78
2022-12-26T03:20:10.604Z,100612.78
2022-12-26T03:21:14.405Z,100604.56
2022-12-26T03:22:30.566Z,100610.84
2022-12-26T03:23:33.022Z,100590.19
2022-12-26T03:24:54.667Z,100600.94
2022-12-26T03:26:17.696Z,100597.44
2022-12-26T03:27:19.107Z,100604.50
2022-12-26T03:28:21.921Z,100603.66
2022-12-26T03:29:42.901Z,100613.63
2022-12-26T03:30:50.360Z,100598.28
2022-12-26T03:31:52.176Z,100607.25
2022-12-26T03:32:57.030Z,100608.09
2022-12-26T03:34:18.503Z,100608.09
2022-12-26T03:35:20.521Z,100600.88
2022-12-26T03:36:47.984Z,100596.31
2022-12-26T03:37:58.314Z,100603.41
2022-12-26T03:39:16.905Z,100604.38
2022-12-26T03:41:15.598Z,100606.31
2022-12-26T03:42:59.002Z,100603.53
2022-12-26T03:44:42.475Z,100597.75
2022-12-26T03:46:27.818Z,100596.03
2022-12-26T03:47:55.549Z,100572.03
2022-12-26T03:49:19.850Z,100592.69
2022-12-26T03:51:01.029Z,100600.72
2022-12-26T03:52:28.308Z,100596.22
2022-12-26T03:54:01.775Z,100595.16
2022-12-26T03:55:34.519Z,100612.31
2022-12-26T03:57:05.017Z,100605.09
2022-12-26T03:58:27.887Z,100612.44
2022-12-26T04:00:04.337Z,100612.13
2022-12-26T04:01:29.677Z,100613.09
2022-12-26T04:02:50.680Z,100628.59
2022-12-26T04:04:13.561Z,100617.63
2022-12-26T04:05:36.003Z,100614.06
2022-12-26T04:07:08.013Z,100614.16
2022-12-26T04:08:38.578Z,100617.81
2022-12-26T04:10:07.503Z,100619.47
2022-12-26T04:11:34.991Z,100630.44
2022-12-26T04:12:57.260Z,100628.63
2022-12-26T04:14:27.763Z,100642.94
2022-12-26T04:15:59.362Z,100641.97
2022-12-26T04:17:39.170Z,100648.38
2022-12-26T04:19:18.205Z,100632.19
2022-12-26T04:20:19.672Z,100631.28
2022-12-26T04:21:39.457Z,100632.19
2022-12-26T04:23:05.948Z,100625.91
2022-12-26T04:24:32.753Z,100616.84
2022-12-26T04:26:05.132Z,100614.91
2022-12-26T04:27:32.068Z,100619.44
2022-12-26T04:28:52.361Z,100628.63
2022-12-26T04:30:12.769Z,100625.13
2022-12-26T04:31:54.583Z,100631.47
2022-12-26T04:33:25.457Z,100625.97
2022-12-26T04:34:58.986Z,100621.31
2022-12-26T04:36:28.704Z,100633.19
2022-12-26T04:37:51.193Z,100636.53
2022-12-26T04:39:15.521Z,100637.44
2022-12-26T04:40:44.996Z,100628.56
2022-12-26T04:42:07.360Z,100635.75
2022-12-26T04:43:49.478Z,100619.34
2022-12-26T04:44:50.862Z,100639.38
2022-12-26T04:45:54.531Z,100634.97
2022-12-26T04:46:56.973Z,100625.06
2022-12-26T04:48:17.195Z,100636.59
2022-12-26T04:49:37.482Z,100631.19
2022-12-26T04:50:53.098Z,100636.78
2022-12-26T04:51:57.189Z,100630.44
2022-12-26T04:52:58.876Z,100634.06
2022-12-26T04:54:00.609Z,100632.38
2022-12-26T04:55:02.032Z,100632.34
2022-12-26T04:56:03.716Z,100627.78
2022-12-26T04:57:06.424Z,100637.03
2022-12-26T04:58:08.006Z,100639.63
2022-12-26T04:59:09.961Z,100639.75
2022-12-26T05:00:12.136Z,100633.38
2022-12-26T05:01:32.393Z,100634.38
2022-12-26T05:02:52.758Z,100638.09
2022-12-26T05:04:12.827Z,100635.28
2022-12-26T05:05:32.663Z,100642.50
2022-12-26T05:06:52.329Z,100646.91
2022-12-26T05:08:12.552Z,100643.25
2022-12-26T05:09:34.537Z,100639.63
2022-12-26T05:10:35.980Z,100646.81
2022-12-26T05:11:37.409Z,100635.88
2022-12-26T05:12:38.851Z,100644.88
2022-12-26T05:13:40.301Z,100654.72
2022-12-26T05:14:41.754Z,100658.47
2022-12-26T05:16:01.769Z,100649.34
2022-12-26T05:17:22.341Z,100663.84
2022-12-26T05:18:45.792Z,100659.06
2022-12-26T05:20:08.120Z,100654.72
2022-12-26T05:21:32.648Z,100665.59
2022-12-26T05:22:58.165Z,100660.88
2022-12-26T05:24:18.492Z,100659.19
2022-12-26T05:25:42.619Z,100664.44
2022-12-26T05:27:03.073Z,100655.63
2022-12-26T05:28:23.441Z,100661.72
2022-12-26T05:29:25.828Z,100665.28
2022-12-26T05:30:28.434Z,100663.53
2022-12-26T05:31:35.369Z,100664.31
2022-12-26T05:32:56.316Z,100659.78
2022-12-26T05:34:09.352Z,100658.81
2022-12-26T05:35:10.813Z,100667.81
2022-12-26T05:36:13.797Z,100664.19
2022-12-26T05:37:15.284Z,100651.63
2022-12-26T05:38:16.719Z,100648.13
2022-12-26T05:39:18.155Z,100646.31
2022-12-26T05:40:19.559Z,100664.50
2022-12-26T05:41:20.974Z,100667.31
2022-12-26T05:42:22.367Z,100669.09
2022-12-26T05:43:24.129Z,100655.56
2022-12-26T05:44:25.584Z,100669.06
2022-12-26T05:45:27.213Z,100666.13
2022-12-26T05:46:28.798Z,100661.78
2022-12-26T05:47:30.252Z,100667.94
2022-12-26T05:48:31.782Z,100660.69
2022-12-26T05:49:33.226Z,100665.16
2022-12-26T05:50:34.670Z,100664.31
2022-12-26T05:51:36.390Z,100662.38
2022-12-26T05:52:38.129Z,100668.66
2022-12-26T05:53:39.651Z,100669.56
2022-12-26T05:54:41.075Z,100661.31
2022-12-26T05:55:42.795Z,100665.81
2022-12-26T05:56:49.088Z,100663.28
2022-12-26T05:57:50.930Z,100669.63
2022-12-26T05:58:57.162Z,100669.34
2022-12-26T05:59:58.657Z,100659.53
2022-12-26T06:01:06.046Z,100663.97
2022-12-26T06:02:07.655Z,100667.69
2022-12-26T06:03:09.404Z,100664.13
2022-12-26T06:04:10.867Z,100670.47
2022-12-26T06:05:12.400Z,100670.47
2022-12-26T06:06:14.812Z,100675.22
2022-12-26T06:07:16.202Z,100674.34
2022-12-26T06:08:17.621Z,100678.84
2022-12-26T06:09:19.047Z,100664.31
2022-12-26T06:10:20.790Z,100673.38
2022-12-26T06:11:24.627Z,100677.09
2022-12-26T06:12:26.018Z,100671.69
2022-12-26T06:13:30.092Z,100662.72
2022-12-26T06:14:31.546Z,100673.50
2022-12-26T06:15:33.063Z,100638.50
2022-12-26T06:16:34.588Z,100662.75
2022-12-26T06:17:36.083Z,100669.09
2022-12-26T06:18:38.125Z,100650.00
2022-12-26T06:19:46.348Z,100666.19
2022-12-26T06:20:48.247Z,100670.66
2022-12-26T06:21:49.693Z,100661.72
2022-12-26T06:22:51.102Z,100665.41
2022-12-26T06:23:52.662Z,100668.06
2022-12-26T06:24:54.094Z,100660.88
2022-12-26T06:25:57.062Z,100664.56
2022-12-26T06:26:58.543Z,100660.03
2022-12-26T06:27:59.977Z,100660.00
2022-12-26T06:29:01.451Z,100660.00
2022-12-26T06:30:06.157Z,100669.03
2022-12-26T06:31:14.619Z,100668.00
2022-12-26T06:32:16.163Z,100672.41
2022-12-26T06:33:18.333Z,100674.31
2022-12-26T06:34:19.863Z,100681.56
2022-12-26T06:35:21.436Z,100682.59
2022-12-26T06:36:27.508Z,100690.63
2022-12-26T06:37:28.979Z,100693.53
2022-12-26T06:38:30.445Z,100698.00
2022-12-26T06:39:31.993Z,100698.06
2022-12-26T06:40:33.392Z,100692.69
2022-12-26T06:41:34.863Z,100708.94
2022-12-26T06:42:36.363Z,100698.00
2022-12-26T06:43:38.114Z,100700.59
2022-12-26T06:44:39.523Z,100707.84
2022-12-26T06:45:40.929Z,100706.88
2022-12-26T06:46:42.474Z,100706.94
2022-12-26T06:47:44.919Z,100704.41
2022-12-26T06:48:46.398Z,100703.50
2022-12-26T06:49:47.797Z,100711.72
2022-12-26T06:50:49.451Z,100715.47
2022-12-26T06:51:50.881Z,100713.72
2022-12-26T06:52:52.468Z,100710.09
2022-12-26T06:53:54.495Z,100709.78
2022-12-26T06:54:55.949Z,100723.28
2022-12-26T06:56:18.607Z,100715.34
2022-12-26T06:57:24.805Z,100714.38
2022-12-26T06:58:26.241Z,100720.84
2022-12-26T06:59:27.645Z,100735.44
2022-12-26T07:00:32.171Z,100739.09
2022-12-26T07:01:35.057Z,100714.69
2022-12-26T07:02:36.800Z,100736.44
2022-12-26T07:03:41.941Z,100744.59
2022-12-26T07:04:46.251Z,100748.00
2022-12-26T07:05:47.696Z,100750.66
2022-12-26T07:06:49.170Z,100748.00
2022-12-26T07:07:52.323Z,100740.69
2022-12-26T07:09:05.519Z,100734.09
2022-12-26T07:10:07.255Z,100722.41
2022-12-26T07:11:20.215Z,100728.72
2022-12-26T07:12:21.960Z,100732.34
2022-12-26T07:13:23.395Z,100730.53
2022-12-26T07:14:24.833Z,100735.19
2022-12-26T07:15:26.246Z,100733.38
2022-12-26T07:16:28.125Z,100738.69
2022-12-26T07:17:29.567Z,100735.00
2022-12-26T07:18:31.017Z,100734.09
2022-12-26T07:19:32.444Z,100740.44
2022-12-26T07:20:33.850Z,100737.66
2022-12-26T07:21:40.370Z,100734.03
2022-12-26T07:22:42.311Z,100738.44
2022-12-26T07:23:43.763Z,100737.47
2022-12-26T07:24:45.188Z,100735.72
2022-12-26T07:25:49.748Z,100731.13
2022-12-26T07:26:51.212Z,100740.28
2022-12-26T07:27:54.012Z,100728.34
2022-12-26T07:28:56.493Z,100733.97
2022-12-26T07:29:57.901Z,100735.97
2022-12-26T07:31:00.419Z,100734.09
2022-12-26T07:32:01.955Z,100730.41
2022-12-26T07:33:03.520Z,100739.47
2022-12-26T07:34:05.087Z,100726.72
2022-12-26T07:35:06.812Z,100736.69
2022-12-26T07:36:08.465Z,100742.13
2022-12-26T07:37:09.957Z,100740.34
2022-12-26T07:38:12.260Z,100741.22
2022-12-26T07:39:14.145Z,100723.19
2022-12-26T07:40:15.633Z,100731.13
2022-12-26T07:41:35.635Z,100727.63
2022-12-26T07:42:36.992Z,100733.00
2022-12-26T07:43:38.426Z,100729.31
2022-12-26T07:44:39.888Z,100732.09
2022-12-26T07:45:45.643Z,100728.34
2022-12-26T07:46:47.544Z,100742.03
2022-12-26T07:47:53.592Z,100735.84
2022-12-26T07:48:55.010Z,100740.31
2022-12-26T07:49:56.446Z,100733.97
2022-12-26T07:51:02.383Z,100736.81
2022-12-26T07:52:04.317Z,100741.28
2022-12-26T07:53:05.795Z,100737.72
2022-12-26T07:54:11.411Z,100742.13
2022-12-26T07:55:13.137Z,100751.28
2022-12-26T07:56:14.561Z,100747.59
2022-12-26T07:57:47.028Z,100759.31
2022-12-26T07:58:37.350Z,100756.56
2022-12-26T07:59:38.830Z,100760.22
2022-12-26T08:00:40.257Z,100760.16
2022-12-26T08:01:43.626Z,100760.22
2022-12-26T08:02:48.484Z,100765.59
2022-12-26T08:03:51.060Z,100767.47
2022-12-26T08:04:52.569Z,100768.28
2022-12-26T08:05:54.162Z,100779.03
2022-12-26T08:06:55.549Z,100770.91
2022-12-26T08:07:57.527Z,100779.94
2022-12-26T08:08:59.027Z,100770.84
2022-12-26T08:10:00.463Z,100777.31
2022-12-26T08:11:03.757Z,100771.00
2022-12-26T08:12:05.327Z,100771.97
2022-12-26T08:13:06.957Z,100771.00
2022-12-26T08:14:10.412Z,100761.91
2022-12-26T08:15:12.749Z,100769.00
2022-12-26T08:16:15.369Z,100762.63
2022-12-26T08:17:18.746Z,100749.13
2022-12-26T08:18:20.306Z,100763.53
2022-12-26T08:19:21.804Z,100759.97
2022-12-26T08:20:23.283Z,100760.94
2022-12-26T08:21:24.687Z,100764.44
2022-12-26T08:22:27.381Z,100768.13
2022-12-26T08:23:28.795Z,100758.16
2022-12-26T08:24:30.470Z,100756.34
2022-12-26T08:25:31.911Z,100759.97
2022-12-26T08:26:33.359Z,100756.34
2022-12-26T08:27:34.912Z,100757.25
2022-12-26T08:28:36.531Z,100755.41
2022-12-26T08:29:37.946Z,100753.66
2022-12-26T08:30:41.185Z,100759.97
2022-12-26T08:31:42.857Z,100759.00
2022-12-26T08:32:46.282Z,100757.06
2022-12-26T08:33:59.975Z,100752.56
2022-12-26T08:35:01.430Z,100753.50
2022-12-26T08:36:08.742Z,100762.63
2022-12-26T08:37:10.189Z,100758.09
2022-12-26T08:38:11.694Z,100763.59
2022-12-26T08:39:13.191Z,100758.16
2022-12-26T08:40:15.652Z,100752.72
2022-12-26T08:41:20.689Z,100765.34
2022-12-26T08:42:22.457Z,100751.69
2022-12-26T08:44:24.460Z,100755.44
2022-12-26T08:44:46.223Z,100743.78
2022-12-26T08:45:47.695Z,100756.41
2022-12-26T08:46:49.138Z,100750.72
2022-12-26T08:47:51.187Z,100760.81
2022-12-26T08:48:52.490Z,100760.72
2022-12-26T08:49:53.872Z,100754.41
2022-12-26T08:51:04.168Z,100753.53
2022-12-26T08:52:05.819Z,100766.38
2022-12-26T08:53:07.234Z,100750.84
2022-12-26T08:54:08.688Z,100756.28
2022-12-26T08:55:10.555Z,100760.03
2022-12-26T08:56:16.192Z,100762.69
2022-12-26T08:57:17.704Z,100769.94
2022-12-26T08:58:19.874Z,100756.34
2022-12-26T08:59:21.888Z,100760.88
2022-12-26T09:00:26.313Z,100758.03
2022-12-26T09:01:30.194Z,100765.28
2022-12-26T09:02:32.000Z,100762.56
2022-12-26T09:03:33.594Z,100768.13
2022-12-26T09:04:35.289Z,100774.44
2022-12-26T09:05:36.750Z,100772.75
2022-12-26T09:06:39.543Z,100780.91
2022-12-26T09:07:41.075Z,100783.56
2022-12-26T09:08:43.223Z,100782.66
2022-12-26T09:09:45.113Z,100784.47
2022-12-26T09:10:46.543Z,100787.13
2022-12-26T09:11:47.996Z,100791.63
2022-12-26T09:12:49.414Z,100792.63
2022-12-26T09:13:50.860Z,100793.53
2022-12-26T09:14:52.319Z,100786.28
2022-12-26T09:15:53.715Z,100782.66
2022-12-26T09:16:55.207Z,100797.06
2022-12-26T09:17:56.788Z,100804.31
2022-12-26T09:19:01.091Z,100801.56
2022-12-26T09:20:02.609Z,100804.31
2022-12-26T09:21:06.247Z,100798.94
2022-12-26T09:22:28.278Z,100807.03
2022-12-26T09:23:35.046Z,100811.56
2022-12-26T09:24:36.510Z,100804.31
2022-12-26T09:25:37.977Z,100806.97
2022-12-26T09:26:39.592Z,100802.31
2022-12-26T09:27:41.006Z,100801.53
2022-12-26T09:28:42.433Z,100791.59
2022-12-26T09:29:43.845Z,100802.31
2022-12-26T09:30:45.428Z,100790.69
2022-12-26T09:31:46.908Z,100795.13
2022-12-26T09:32:49.082Z,100809.56
2022-12-26T09:33:51.032Z,100811.38
2022-12-26T09:34:52.461Z,100807.72
2022-12-26T09:35:57.067Z,100811.34
2022-12-26T09:37:03.253Z,100817.69
2022-12-26T09:38:04.704Z,100800.50
2022-12-26T09:39:07.128Z,100814.03
2022-12-26T09:40:20.691Z,100799.50
2022-12-26T09:41:40.537Z,100814.84
2022-12-26T09:43:50.420Z,100811.13
2022-12-26T09:45:06.306Z,100811.97
2022-12-26T09:46:25.393Z,100812.88
2022-12-26T09:47:34.410Z,100801.06
2022-12-26T09:48:51.723Z,100802.88
2022-12-26T09:49:56.175Z,100800.09
2022-12-26T09:50:57.755Z,100793.75
2022-12-26T09:52:05.815Z,100797.38
2022-12-26T09:53:47.606Z,100801.00
2022-12-26T09:55:02.632Z,100789.97
2022-12-26T09:56:13.962Z,100800.94
2022-12-26T09:57:42.950Z,100790.97
2022-12-26T09:58:53.045Z,100795.34
2022-12-26T10:00:01.330Z,100797.16
2022-12-26T10:01:17.699Z,100787.19
2022-12-26T10:02:22.673Z,100802.69
2022-12-26T10:03:25.298Z,100806.25
2022-12-26T10:04:30.408Z,100802.59
2022-12-26T10:05:39.393Z,100815.22
2022-12-26T10:06:47.836Z,100812.53
2022-12-26T10:07:59.776Z,100820.72
2022-12-26T10:09:14.658Z,100823.31
2022-12-26T10:10:45.562Z,100818.69
2022-12-26T10:11:46.913Z,100825.97
2022-12-26T10:13:06.520Z,100832.25
2022-12-26T10:14:45.381Z,100825.97
2022-12-26T10:15:53.584Z,100820.63
2022-12-26T10:17:22.136Z,100829.59
2022-12-26T10:18:42.390Z,100830.38
2022-12-26T10:20:18.698Z,100831.28
2022-12-26T10:21:41.840Z,100836.72
2022-12-26T10:22:59.453Z,100830.44
2022-12-26T10:24:09.093Z,100830.44
2022-12-26T10:25:24.056Z,100832.25
2022-12-26T10:26:42.577Z,100824.06
2022-12-26T10:27:48.401Z,100833.16
2022-12-26T10:29:05.063Z,100827.69
2022-12-26T10:30:14.242Z,100834.91
2022-12-26T10:31:36.621Z,100835.00
2022-12-26T10:32:44.627Z,100828.69
2022-12-26T10:34:00.418Z,100831.47
2022-12-26T10:35:22.372Z,100820.63
2022-12-26T10:36:37.025Z,100826.81
2022-12-26T10:37:42.098Z,100825.03
2022-12-26T10:38:47.936Z,100815.06
2022-12-26T10:39:52.401Z,100825.03
2022-12-26T10:40:56.800Z,100825.97
2022-12-26T10:42:11.581Z,100841.41
2022-12-26T10:43:25.110Z,100835.03
2022-12-26T10:44:28.034Z,100834.16
2022-12-26T10:45:43.296Z,100837.81
2022-12-26T10:46:56.807Z,100785.59
2022-12-26T10:47:58.299Z,100817.88
2022-12-26T10:48:59.972Z,100819.88
2022-12-26T10:50:02.218Z,100822.59
2022-12-26T10:51:03.919Z,100819.03
2022-12-26T10:52:05.472Z,100813.72
2022-12-26T10:53:10.832Z,100821.81
2022-12-26T10:54:17.800Z,100820.91
2022-12-26T10:55:29.373Z,100826.34
2022-12-26T10:56:35.705Z,100821.72
2022-12-26T10:57:37.423Z,100820.91
2022-12-26T10:58:40.956Z,100828.09
2022-12-26T10:59:51.957Z,100814.63
2022-12-26T11:00:53.460Z,100812.81
2022-12-26T11:01:55.120Z,100811.13
2022-12-26T11:03:07.550Z,100816.59
2022-12-26T11:05:01.993Z,100823.03
2022-12-26T11:06:09.518Z,100818.56
2022-12-26T11:07:18.461Z,100821.19
2022-12-26T11:08:26.701Z,100824.81
2022-12-26T11:09:37.839Z,100821.31
2022-12-26T11:10:39.309Z,100822.16
2022-12-26T11:11:51.591Z,100823.03
2022-12-26T11:12:59.951Z,100831.22
2022-12-26T11:14:03.555Z,100826.63
2022-12-26T11:15:18.287Z,100823.97
2022-12-26T11:16:38.445Z,100832.13
2022-12-26T11:17:45.203Z,100827.59
2022-12-26T11:18:48.975Z,100829.47
2022-12-26T11:20:09.367Z,100828.63
2022-12-26T11:21:20.175Z,100829.59
2022-12-26T11:22:27.973Z,100825.13
2022-12-26T11:23:32.672Z,100831.28
2022-12-26T11:24:34.122Z,100822.31
2022-12-26T11:25:48.355Z,100824.16
2022-12-26T11:26:49.795Z,100825.06
2022-12-26T11:27:54.513Z,100826.94
2022-12-26T11:29:12.364Z,100826.09
2022-12-26T11:30:13.716Z,100809.81
2022-12-26T11:31:28.029Z,100812.53
2022-12-26T11:32:29.753Z,100805.34
2022-12-26T11:33:43.202Z,100807.09
2022-12-26T11:34:47.878Z,100805.28
2022-12-26T11:36:01.530Z,100804.31
2022-12-26T11:37:05.546Z,100801.56
2022-12-26T11:38:39.207Z,100805.09
2022-12-26T11:39:51.743Z,100807.03
2022-12-26T11:41:13.162Z,100798.94
2022-12-26T11:42:20.843Z,100808.91
2022-12-26T11:43:25.500Z,100809.88
2022-12-26T11:44:40.919Z,100813.56
2022-12-26T11:45:45.018Z,100819.84
2022-12-26T11:47:07.406Z,100828.94
2022-12-26T11:48:26.289Z,100817.09
2022-12-26T11:49:46.611Z,100817.09
2022-12-26T11:50:48.345Z,100825.19
2022-12-26T11:51:58.474Z,100820.69
2022-12-26T11:53:00.864Z,100819.81
2022-12-26T11:54:21.793Z,100829.69
2022-12-26T11:55:25.396Z,100824.22
2022-12-26T11:56:27.207Z,100822.41
2022-12-26T11:57:31.598Z,100828.75
2022-12-26T11:58:34.101Z,100835.94
2022-12-26T11:59:35.567Z,100832.38
2022-12-26T12:00:38.105Z,100832.31
2022-12-26T12:01:39.741Z,100835.88
2022-12-26T12:02:41.939Z,100834.09
2022-12-26T12:03:50.313Z,100842.25
2022-12-26T12:04:55.266Z,100837.72
2022-12-26T12:06:14.893Z,100844.13
2022-12-26T12:08:00.987Z,100837.75
2022-12-26T12:09:33.385Z,100837.78
2022-12-26T12:11:08.307Z,100838.69
2022-12-26T12:12:22.941Z,100832.44
2022-12-26T12:13:59.032Z,100830.63
2022-12-26T12:15:00.620Z,100832.44
2022-12-26T12:16:09.379Z,100831.47
2022-12-26T12:17:23.665Z,100832.38
2022-12-26T12:18:43.732Z,100837.84
2022-12-26T12:20:04.095Z,100826.09
2022-12-26T12:21:29.243Z,100820.75
2022-12-26T12:22:51.718Z,100812.53
2022-12-26T12:24:15.167Z,100816.16
2022-12-26T12:25:22.636Z,100811.63
2022-12-26T12:26:33.944Z,100808.97
2022-12-26T12:28:04.450Z,100813.50
2022-12-26T12:29:08.831Z,100829.09
2022-12-26T12:30:21.963Z,100815.56
2022-12-26T12:31:35.520Z,100815.56
2022-12-26T12:33:06.207Z,100817.25
2022-12-26T12:34:22.176Z,100817.22
2022-12-26T12:35:44.833Z,100805.44
2022-12-26T12:36:58.859Z,100806.41
2022-12-26T12:38:19.111Z,100797.31
2022-12-26T12:39:35.502Z,100793.84
2022-12-26T12:40:46.041Z,100792.16
2022-12-26T12:42:16.903Z,100792.19
2022-12-26T12:43:31.129Z,100789.50
2022-12-26T12:44:55.807Z,100794.88
2022-12-26T12:46:31.961Z,100799.28
2022-12-26T12:48:24.429Z,100810.06
2022-12-26T12:49:50.684Z,100807.34
2022-12-26T12:51:10.322Z,100800.06
2022-12-26T12:52:17.818Z,100793.72
2022-12-26T12:53:37.528Z,100798.25
2022-12-26T12:54:44.979Z,100808.25
2022-12-26T12:55:55.402Z,100806.31
2022-12-26T12:57:12.995Z,100818.16
2022-12-26T12:58:43.884Z,100816.47
2022-12-26T13:00:30.342Z,100814.59
2022-12-26T13:01:44.856Z,100820.03
2022-12-26T13:03:10.350Z,100819.19
2022-12-26T13:04:33.805Z,100813.75
2022-12-26T13:05:53.847Z,100820.03
2022-12-26T13:06:56.619Z,100811.00
2022-12-26T13:08:05.765Z,100810.13
2022-12-26T13:09:28.071Z,100818.41
2022-12-26T13:10:35.509Z,100814.78
2022-12-26T13:11:53.582Z,100808.41
2022-12-26T13:12:57.442Z,100803.81
2022-12-26T13:14:13.029Z,100806.53
2022-12-26T13:15:28.059Z,100793.91
2022-12-26T13:16:36.010Z,100793.00